メインページ
METAR-TAF:

METAR-TAF

空港 :

サンティアゴ, チリ

アルトゥーロ・メリノ・ベニテス国際空港

緯度: 33-23S, 経度: 070-47W, 海抜: 475m

現時点の気象観測

当レポートは51分前の01:00(UTC)に作成
の風 4kt
気温 12°C
湿度 88%
気圧 1014 hPa
視程10km以上
高度3000ftの雲は散在している
高度16000ftの千切れ雲あり

METAR: SCEL 260100Z 17004KT 9999 SCT030 BKN160 12/10 Q1014 NOSIG

時間: 21:51 (01:51 UTC)

予報

当レポートは3時間21分前の22:30(UTC)に作成
予報は26日の 00時(UTC)から 26日の 24時(UTC)まで有効
南/南東の風 10kt
視程10km以上
高度2500ftの千切れ雲あり
高度16000ftの千切れ雲あり
26日の 01時(UTC)から 26日の 03時(UTC)まで徐々に
北/北西の風 4kt
視程: 7000m
高度3000ftの千切れ雲あり
高度12000ftの千切れ雲あり
26日の 12時(UTC)から 26日の 13時(UTC)まで徐々に
南/南東の風 5kt
視程10km以上
高度3000ftの雲は散在している
高度8000ftの雲は散在している
高度15000ftの千切れ雲あり
にわか雨
26日の 16時(UTC)から 26日の 18時(UTC)まで徐々に
の風 12kt

TAF: SCEL 252230Z 2600/2624 15010KT 9999 BKN025 BKN160 TX13/2618Z TN07/2610Z BECMG 2601/2603 33004KT 7000 RA BKN030 BKN120 BECMG 2612/2613 15005KT 9999 SHRA SCT030 SCT080 BKN150 BECMG 2616/2618 19012KT NSW

4,000以上の空港の気象観測と天気予報(METAR報とTAF報)

利用可能な観測所は地図上に黄色い丸と赤い丸で示す。

丸の上にカーソルを重ねると観測所名を参照できる。

次にクリックすると気象観測と天気予報を参照できる。

マップの切り替え:黒色「×」印の緑ボタンをクリックして拡大、「-」印の緑ボタンをクリックして縮小、緑色の三角印をクリックして隣りの地図に切り替え


METAR-TAF: